createdAt,value
2022-09-26T08:06:02.167Z,95843.34
2022-09-26T08:07:03.981Z,95836.75
2022-09-26T08:20:33.883Z,95817.59
2022-09-26T08:21:35.602Z,95789.78
2022-09-26T08:22:36.961Z,95815.75
2022-09-26T08:23:38.353Z,95822.50
2022-09-26T08:36:05.635Z,95819.06
2022-09-26T08:37:07.325Z,95815.84
2022-09-26T08:38:09.161Z,95818.34
2022-09-26T08:39:11.029Z,95805.94
2022-09-26T08:40:12.652Z,95809.53
2022-09-26T08:41:46.242Z,95801.53
2022-09-26T08:43:07.291Z,95803.53
2022-09-26T08:44:30.049Z,95793.34
2022-09-26T08:46:13.556Z,95805.72
2022-09-26T08:47:21.474Z,95805.34
2022-09-26T08:48:39.236Z,95790.06
2022-09-26T08:49:55.383Z,95802.56
2022-09-26T08:51:06.844Z,95799.66
2022-09-26T08:52:36.871Z,95803.31
2022-09-26T08:53:48.858Z,95797.84
2022-09-26T08:54:53.202Z,95793.84
2022-09-26T08:55:57.548Z,95780.50
2022-09-26T08:57:15.890Z,95794.56
2022-09-26T08:58:28.701Z,95764.56
2022-09-26T08:59:46.068Z,95789.63
2022-09-26T09:06:05.501Z,95788.09
2022-09-26T09:07:20.961Z,95782.06
2022-09-26T09:08:27.881Z,95789.72
2022-09-26T09:09:29.612Z,95789.84
2022-09-26T09:10:56.680Z,95788.09
2022-09-26T09:12:30.055Z,95790.81
2022-09-26T09:13:38.974Z,95789.66
2022-09-26T09:15:13.843Z,95786.78
2022-09-26T09:16:23.103Z,95786.69
2022-09-26T09:18:13.803Z,95789.66
2022-09-26T09:19:34.630Z,95776.63
2022-09-26T09:20:48.079Z,95790.03
2022-09-26T09:21:58.449Z,95786.81
2022-09-26T09:23:31.904Z,95779.47
2022-09-26T09:24:59.582Z,95761.34
2022-09-26T09:27:55.290Z,95778.56
2022-09-26T09:29:23.588Z,95772.13
2022-09-26T09:30:43.942Z,95761.19
2022-09-26T09:31:47.867Z,95767.00
2022-09-26T09:32:58.873Z,95778.38
2022-09-26T09:34:05.746Z,95777.25
2022-09-26T09:35:18.917Z,95770.63
2022-09-26T09:36:26.360Z,95757.81
2022-09-26T09:37:43.046Z,95776.22
2022-09-26T09:38:47.705Z,95771.97
2022-09-26T09:39:50.537Z,95759.66
2022-09-26T09:41:15.090Z,95760.44
2022-09-26T09:42:36.007Z,95755.31
2022-09-26T09:43:57.849Z,95763.69
2022-09-26T09:45:23.430Z,95753.63
2022-09-26T09:46:36.277Z,95760.66
2022-09-26T09:47:39.284Z,95769.09
2022-09-26T09:48:40.861Z,95770.06
2022-09-26T09:49:44.186Z,95766.38
2022-09-26T09:51:05.451Z,95765.28
2022-09-26T09:52:16.481Z,95767.91
2022-09-26T09:53:42.364Z,95762.25
2022-09-26T09:54:55.414Z,95755.72
2022-09-26T09:56:02.900Z,95756.69
2022-09-26T09:57:16.345Z,95750.00
2022-09-26T09:59:03.763Z,95752.16
2022-09-26T10:06:52.561Z,95724.03
2022-09-26T10:07:59.059Z,95733.03
2022-09-26T10:09:36.039Z,95735.16
2022-09-26T10:10:46.146Z,95730.56
2022-09-26T10:11:51.896Z,95738.75
2022-09-26T10:12:55.777Z,95715.13
2022-09-26T10:14:06.854Z,95717.59
2022-09-26T10:15:19.667Z,95724.16
2022-09-26T10:16:21.279Z,95719.66
2022-09-26T10:17:23.623Z,95720.66
2022-09-26T10:18:30.150Z,95714.78
2022-09-26T10:19:39.032Z,95690.72
2022-09-26T10:20:52.778Z,95684.44
2022-09-26T10:21:54.279Z,95719.44
2022-09-26T10:22:55.702Z,95723.50
2022-09-26T10:23:58.853Z,95716.78
2022-09-26T10:25:06.413Z,95717.09
2022-09-26T10:26:10.869Z,95713.88
2022-09-26T10:27:25.132Z,95718.00
2022-09-26T10:28:30.394Z,95702.94
2022-09-26T10:29:35.049Z,95714.19
2022-09-26T10:30:48.846Z,95706.91
2022-09-26T10:32:00.231Z,95697.94
2022-09-26T10:33:04.133Z,95719.56
2022-09-26T10:34:08.167Z,95724.63
2022-09-26T10:35:20.725Z,95713.88
2022-09-26T10:47:35.200Z,95708.06
2022-09-26T10:48:54.574Z,95706.38
2022-09-26T10:50:05.483Z,95709.16
2022-09-26T10:51:07.687Z,95709.81
2022-09-26T10:52:18.888Z,95705.94
2022-09-26T10:53:23.165Z,95693.59
2022-09-26T10:54:41.772Z,95701.41
2022-09-26T10:55:51.211Z,95702.69
2022-09-26T10:56:59.045Z,95708.69
2022-09-26T10:58:13.854Z,95705.03
2022-09-26T10:59:18.187Z,95699.38
2022-09-26T11:00:19.518Z,95704.00
2022-09-26T11:01:26.482Z,95699.53
2022-09-26T11:02:28.589Z,95697.91
2022-09-26T11:03:43.260Z,95688.16
2022-09-26T11:05:05.231Z,95668.56
2022-09-26T11:12:59.835Z,95674.16
2022-09-26T11:14:03.813Z,95660.31
2022-09-26T11:15:14.106Z,95660.19
2022-09-26T11:16:20.012Z,95670.19
2022-09-26T11:17:21.526Z,95663.84
2022-09-26T11:18:43.026Z,95651.53
2022-09-26T11:19:54.678Z,95666.88
2022-09-26T11:35:46.797Z,95645.88
2022-09-26T11:37:09.819Z,95653.28
2022-09-26T11:38:35.880Z,95650.47
2022-09-26T11:39:58.232Z,95659.72
2022-09-26T11:41:07.244Z,95640.53
2022-09-26T11:43:00.269Z,95652.97
2022-09-26T11:44:27.010Z,95647.47
2022-09-26T11:45:52.142Z,95637.44
2022-09-26T11:47:13.027Z,95639.56
2022-09-26T11:48:28.805Z,95643.09
2022-09-26T11:49:59.253Z,95644.41
2022-09-26T11:51:22.938Z,95644.69
2022-09-26T11:52:46.888Z,95635.81
2022-09-26T12:01:05.270Z,95609.19
2022-09-26T12:02:33.255Z,95622.81
2022-09-26T12:03:56.170Z,95617.59
2022-09-26T12:05:27.010Z,95604.56
2022-09-26T12:07:07.742Z,95613.34
2022-09-26T12:08:34.397Z,95594.38
2022-09-26T12:09:41.655Z,95601.78
2022-09-26T12:11:05.449Z,95595.44
2022-09-26T12:19:34.333Z,95568.31
2022-09-26T12:20:57.452Z,95580.13
2022-09-26T12:22:30.935Z,95571.66
2022-09-26T12:23:42.045Z,95565.66
2022-09-26T12:36:18.821Z,95551.84
2022-09-26T12:37:56.531Z,95556.34
2022-09-26T12:39:25.882Z,95553.44
2022-09-26T12:40:37.311Z,95551.66
2022-09-26T12:42:02.750Z,95541.09
2022-09-26T12:43:04.725Z,95548.53
2022-09-26T12:44:33.579Z,95547.91
2022-09-26T12:45:42.042Z,95547.63
2022-09-26T12:47:21.357Z,95545.41
2022-09-26T12:48:50.614Z,95549.78
2022-09-26T12:50:20.585Z,95559.69
2022-09-26T12:51:28.601Z,95529.22
2022-09-26T12:52:55.040Z,95555.78
2022-09-26T13:06:08.518Z,95553.53
2022-09-26T13:07:31.714Z,95550.59
2022-09-26T13:08:57.171Z,95555.56
2022-09-26T13:10:31.448Z,95549.72
2022-09-26T13:11:53.956Z,95544.78
2022-09-26T13:13:30.052Z,95535.41
2022-09-26T13:14:40.904Z,95520.34
2022-09-26T13:16:25.282Z,95551.84
2022-09-26T13:17:36.054Z,95536.31
2022-09-26T13:18:47.413Z,95539.53
2022-09-26T13:19:51.383Z,95522.88
2022-09-26T13:20:57.845Z,95530.19
2022-09-26T13:22:06.598Z,95524.34
2022-09-26T13:23:21.207Z,95524.28
2022-09-26T13:24:44.976Z,95526.75
2022-09-26T13:25:52.236Z,95495.72
2022-09-26T13:27:17.678Z,95524.72
2022-09-26T13:29:06.441Z,95520.75
2022-09-26T13:30:19.768Z,95522.31
2022-09-26T13:31:55.830Z,95513.75
2022-09-26T13:33:05.692Z,95536.41
2022-09-26T13:34:17.269Z,95520.88
2022-09-26T13:35:27.388Z,95508.94
2022-09-26T13:36:31.198Z,95520.50
2022-09-26T13:38:11.842Z,95519.44
2022-09-26T13:39:24.176Z,95507.22
2022-09-26T13:40:42.939Z,95506.53
2022-09-26T13:41:53.865Z,95518.75
2022-09-26T13:48:03.741Z,95505.66
2022-09-26T13:49:33.790Z,95508.78
2022-09-26T13:50:47.476Z,95499.69
2022-09-26T13:52:18.393Z,95508.47
2022-09-26T13:53:40.304Z,95513.09
2022-09-26T13:55:00.439Z,95528.09
2022-09-26T13:56:36.055Z,95510.00
2022-09-26T13:57:41.990Z,95507.69
2022-09-26T13:58:43.429Z,95503.94
2022-09-26T13:59:54.159Z,95495.78
2022-09-26T14:01:25.849Z,95507.66
2022-09-26T14:02:31.860Z,95500.38
2022-09-26T14:03:37.988Z,95514.09
2022-09-26T14:04:39.821Z,95501.81
2022-09-26T14:05:41.181Z,95499.75
2022-09-26T14:07:28.607Z,95499.81
2022-09-26T14:08:55.621Z,95488.22
2022-09-26T14:10:08.389Z,95490.72
2022-09-26T14:11:16.046Z,95487.66
2022-09-26T14:12:21.647Z,95499.75
2022-09-26T14:13:35.562Z,95481.91
2022-09-26T14:14:52.382Z,95480.66
2022-09-26T14:16:00.065Z,95481.16
2022-09-26T14:17:07.252Z,95460.47
2022-09-26T14:18:21.826Z,95467.69
2022-09-26T14:19:36.188Z,95474.03
2022-09-26T14:20:52.624Z,95476.53
2022-09-26T14:22:25.878Z,95476.59
2022-09-26T14:23:38.103Z,95465.88
2022-09-26T14:24:41.643Z,95467.81
2022-09-26T14:25:45.459Z,95460.22
2022-09-26T15:18:30.858Z,95414.41
2022-09-26T15:19:39.791Z,95395.19
2022-09-26T15:20:47.966Z,95405.00
2022-09-26T15:22:04.080Z,95407.75
2022-09-26T15:51:23.209Z,95360.66
2022-09-26T15:52:24.715Z,95371.44
2022-09-26T15:53:31.868Z,95369.22
2022-09-26T15:54:33.454Z,95374.94
2022-09-26T15:55:39.066Z,95363.13
2022-09-26T15:56:53.079Z,95367.91
2022-09-26T15:57:58.804Z,95367.09
